sensor_id;sensor_type;location;lat;lon;timestamp;temperature;humidity
45008;DHT22;30743;52.008;5.644;2023-07-22T00:02:24;21.00;99.90
45008;DHT22;30743;52.008;5.644;2023-07-22T00:04:49;20.90;99.90
45008;DHT22;30743;52.008;5.644;2023-07-22T00:07:15;20.90;99.90
45008;DHT22;30743;52.008;5.644;2023-07-22T00:09:42;20.90;99.90
45008;DHT22;30743;52.008;5.644;2023-07-22T00:12:08;20.90;99.90
45008;DHT22;30743;52.008;5.644;2023-07-22T00:14:34;20.80;99.90
45008;DHT22;30743;52.008;5.644;2023-07-22T00:17:00;20.80;99.90
45008;DHT22;30743;52.008;5.644;2023-07-22T00:19:25;20.80;99.90
45008;DHT22;30743;52.008;5.644;2023-07-22T00:21:51;20.70;99.90
45008;DHT22;30743;52.008;5.644;2023-07-22T00:24:17;20.70;99.90
45008;DHT22;30743;52.008;5.644;2023-07-22T00:26:44;20.70;99.90
45008;DHT22;30743;52.008;5.644;2023-07-22T00:29:09;20.60;99.90
45008;DHT22;30743;52.008;5.644;2023-07-22T00:31:35;20.60;99.90
45008;DHT22;30743;52.008;5.644;2023-07-22T00:34:00;20.50;99.90
45008;DHT22;30743;52.008;5.644;2023-07-22T00:36:26;20.60;99.90
45008;DHT22;30743;52.008;5.644;2023-07-22T00:38:51;20.60;99.90
45008;DHT22;30743;52.008;5.644;2023-07-22T00:41:18;20.50;99.90
45008;DHT22;30743;52.008;5.644;2023-07-22T00:43:44;20.50;99.90
45008;DHT22;30743;52.008;5.644;2023-07-22T00:46:09;20.50;99.90
45008;DHT22;30743;52.008;5.644;2023-07-22T00:48:35;20.50;99.90
45008;DHT22;30743;52.008;5.644;2023-07-22T00:51:01;20.50;99.90
45008;DHT22;30743;52.008;5.644;2023-07-22T00:53:28;20.50;99.90
45008;DHT22;30743;52.008;5.644;2023-07-22T00:55:54;20.50;99.90
45008;DHT22;30743;52.008;5.644;2023-07-22T00:58:20;20.50;99.90
45008;DHT22;30743;52.008;5.644;2023-07-22T01:00:46;20.50;99.90
45008;DHT22;30743;52.008;5.644;2023-07-22T01:03:11;20.50;99.90
45008;DHT22;30743;52.008;5.644;2023-07-22T01:05:38;20.50;99.90
45008;DHT22;30743;52.008;5.644;2023-07-22T01:08:05;20.50;99.90
45008;DHT22;30743;52.008;5.644;2023-07-22T01:10:31;20.60;99.90
45008;DHT22;30743;52.008;5.644;2023-07-22T01:12:57;20.60;99.90
45008;DHT22;30743;52.008;5.644;2023-07-22T01:15:23;20.60;99.90
45008;DHT22;30743;52.008;5.644;2023-07-22T01:17:50;20.60;99.90
45008;DHT22;30743;52.008;5.644;2023-07-22T01:20:15;20.50;99.90
45008;DHT22;30743;52.008;5.644;2023-07-22T01:22:47;20.60;99.90
45008;DHT22;30743;52.008;5.644;2023-07-22T01:25:15;20.50;99.90
45008;DHT22;30743;52.008;5.644;2023-07-22T01:27:41;20.50;99.90
45008;DHT22;30743;52.008;5.644;2023-07-22T01:30:07;20.50;99.90
45008;DHT22;30743;52.008;5.644;2023-07-22T01:32:35;20.50;99.90
45008;DHT22;30743;52.008;5.644;2023-07-22T01:35:00;20.50;99.90
45008;DHT22;30743;52.008;5.644;2023-07-22T01:37:26;20.50;99.90
45008;DHT22;30743;52.008;5.644;2023-07-22T01:39:51;20.50;99.90
45008;DHT22;30743;52.008;5.644;2023-07-22T01:42:17;21.50;99.90
45008;DHT22;30743;52.008;5.644;2023-07-22T01:44:43;20.60;99.90
45008;DHT22;30743;52.008;5.644;2023-07-22T01:47:08;20.60;99.90
45008;DHT22;30743;52.008;5.644;2023-07-22T01:49:34;20.60;99.90
45008;DHT22;30743;52.008;5.644;2023-07-22T01:52:00;20.60;99.90
45008;DHT22;30743;52.008;5.644;2023-07-22T01:54:26;20.60;99.90
45008;DHT22;30743;52.008;5.644;2023-07-22T01:56:51;20.60;99.90
45008;DHT22;30743;52.008;5.644;2023-07-22T01:59:17;20.50;99.90
45008;DHT22;30743;52.008;5.644;2023-07-22T02:01:42;20.60;99.90
45008;DHT22;30743;52.008;5.644;2023-07-22T02:04:08;20.50;99.90
45008;DHT22;30743;52.008;5.644;2023-07-22T02:06:33;20.50;99.90
45008;DHT22;30743;52.008;5.644;2023-07-22T02:09:00;20.50;99.90
45008;DHT22;30743;52.008;5.644;2023-07-22T02:11:31;20.50;99.90
45008;DHT22;30743;52.008;5.644;2023-07-22T02:13:56;20.50;99.90
45008;DHT22;30743;52.008;5.644;2023-07-22T02:16:22;20.50;99.90
45008;DHT22;30743;52.008;5.644;2023-07-22T02:18:47;20.40;99.90
45008;DHT22;30743;52.008;5.644;2023-07-22T02:21:13;20.40;99.90
45008;DHT22;30743;52.008;5.644;2023-07-22T02:23:38;20.50;99.90
45008;DHT22;30743;52.008;5.644;2023-07-22T02:26:04;20.40;99.90
45008;DHT22;30743;52.008;5.644;2023-07-22T02:28:30;20.30;99.90
45008;DHT22;30743;52.008;5.644;2023-07-22T02:30:55;20.30;99.90
45008;DHT22;30743;52.008;5.644;2023-07-22T02:33:21;20.30;99.90
45008;DHT22;30743;52.008;5.644;2023-07-22T02:35:47;20.30;99.90
45008;DHT22;30743;52.008;5.644;2023-07-22T02:38:13;20.20;99.90
45008;DHT22;30743;52.008;5.644;2023-07-22T02:40:39;20.20;99.90
45008;DHT22;30743;52.008;5.644;2023-07-22T02:43:05;20.10;99.90
45008;DHT22;30743;52.008;5.644;2023-07-22T02:45:33;20.10;99.90
45008;DHT22;30743;52.008;5.644;2023-07-22T02:47:58;20.10;99.90
45008;DHT22;30743;52.008;5.644;2023-07-22T02:50:24;20.10;99.90
45008;DHT22;30743;52.008;5.644;2023-07-22T02:52:51;20.00;99.90
45008;DHT22;30743;52.008;5.644;2023-07-22T02:55:17;20.00;99.90
45008;DHT22;30743;52.008;5.644;2023-07-22T02:57:46;20.00;99.90
45008;DHT22;30743;52.008;5.644;2023-07-22T03:00:13;19.90;99.90
45008;DHT22;30743;52.008;5.644;2023-07-22T03:02:40;19.90;99.90
45008;DHT22;30743;52.008;5.644;2023-07-22T03:05:07;19.80;99.90
45008;DHT22;30743;52.008;5.644;2023-07-22T03:07:37;19.80;99.90
45008;DHT22;30743;52.008;5.644;2023-07-22T03:10:04;19.80;99.90
45008;DHT22;30743;52.008;5.644;2023-07-22T03:12:29;19.80;99.90
45008;DHT22;30743;52.008;5.644;2023-07-22T03:14:55;19.80;99.90
45008;DHT22;30743;52.008;5.644;2023-07-22T03:17:20;19.80;99.90
45008;DHT22;30743;52.008;5.644;2023-07-22T03:19:46;19.70;99.90
45008;DHT22;30743;52.008;5.644;2023-07-22T03:22:14;19.70;99.90
45008;DHT22;30743;52.008;5.644;2023-07-22T03:24:41;19.70;99.90
45008;DHT22;30743;52.008;5.644;2023-07-22T03:27:07;19.60;99.90
45008;DHT22;30743;52.008;5.644;2023-07-22T03:29:32;19.70;99.90
45008;DHT22;30743;52.008;5.644;2023-07-22T03:31:58;19.70;99.90
45008;DHT22;30743;52.008;5.644;2023-07-22T03:34:28;19.60;99.90
45008;DHT22;30743;52.008;5.644;2023-07-22T03:36:54;19.60;99.90
45008;DHT22;30743;52.008;5.644;2023-07-22T03:39:19;19.60;99.90
45008;DHT22;30743;52.008;5.644;2023-07-22T03:41:45;19.60;99.90
45008;DHT22;30743;52.008;5.644;2023-07-22T03:44:11;19.60;99.90
45008;DHT22;30743;52.008;5.644;2023-07-22T03:46:37;19.60;99.90
45008;DHT22;30743;52.008;5.644;2023-07-22T03:49:03;19.60;99.90
45008;DHT22;30743;52.008;5.644;2023-07-22T03:51:28;19.60;99.90
45008;DHT22;30743;52.008;5.644;2023-07-22T03:53:54;19.60;99.90
45008;DHT22;30743;52.008;5.644;2023-07-22T03:56:20;19.60;99.90
45008;DHT22;30743;52.008;5.644;2023-07-22T03:58:45;19.60;99.90
45008;DHT22;30743;52.008;5.644;2023-07-22T04:01:12;19.60;99.90
45008;DHT22;30743;52.008;5.644;2023-07-22T04:03:37;19.60;99.90
45008;DHT22;30743;52.008;5.644;2023-07-22T04:06:03;19.60;99.90
45008;DHT22;30743;52.008;5.644;2023-07-22T04:08:28;19.50;99.90
45008;DHT22;30743;52.008;5.644;2023-07-22T04:10:55;19.50;99.90
45008;DHT22;30743;52.008;5.644;2023-07-22T04:13:22;19.50;99.90
45008;DHT22;30743;52.008;5.644;2023-07-22T04:15:48;19.50;99.90
45008;DHT22;30743;52.008;5.644;2023-07-22T04:18:15;19.50;99.90
45008;DHT22;30743;52.008;5.644;2023-07-22T04:20:41;19.50;99.90
45008;DHT22;30743;52.008;5.644;2023-07-22T04:23:07;19.40;99.90
45008;DHT22;30743;52.008;5.644;2023-07-22T04:25:32;19.50;99.90
45008;DHT22;30743;52.008;5.644;2023-07-22T04:27:57;19.40;99.90
45008;DHT22;30743;52.008;5.644;2023-07-22T04:30:23;19.40;99.90
45008;DHT22;30743;52.008;5.644;2023-07-22T04:32:49;19.40;99.90
45008;DHT22;30743;52.008;5.644;2023-07-22T04:35:16;19.40;99.90
45008;DHT22;30743;52.008;5.644;2023-07-22T04:37:44;19.30;99.90
45008;DHT22;30743;52.008;5.644;2023-07-22T04:40:11;19.20;99.90
45008;DHT22;30743;52.008;5.644;2023-07-22T04:42:40;19.20;99.90
45008;DHT22;30743;52.008;5.644;2023-07-22T04:45:06;19.20;99.90
45008;DHT22;30743;52.008;5.644;2023-07-22T04:47:32;19.20;99.90
45008;DHT22;30743;52.008;5.644;2023-07-22T04:49:57;19.10;99.90
45008;DHT22;30743;52.008;5.644;2023-07-22T04:52:23;19.10;99.90
45008;DHT22;30743;52.008;5.644;2023-07-22T04:54:48;19.10;99.90
45008;DHT22;30743;52.008;5.644;2023-07-22T04:57:15;19.00;99.90
45008;DHT22;30743;52.008;5.644;2023-07-22T04:59:42;19.10;99.90
45008;DHT22;30743;52.008;5.644;2023-07-22T05:02:08;19.00;99.90
45008;DHT22;30743;52.008;5.644;2023-07-22T05:04:33;19.10;99.90
45008;DHT22;30743;52.008;5.644;2023-07-22T05:06:59;19.10;99.90
45008;DHT22;30743;52.008;5.644;2023-07-22T05:09:25;19.30;99.90
45008;DHT22;30743;52.008;5.644;2023-07-22T05:11:50;19.30;99.90
45008;DHT22;30743;52.008;5.644;2023-07-22T05:14:16;19.30;99.90
45008;DHT22;30743;52.008;5.644;2023-07-22T05:16:41;19.30;99.90
45008;DHT22;30743;52.008;5.644;2023-07-22T05:19:07;19.30;99.90
45008;DHT22;30743;52.008;5.644;2023-07-22T05:21:33;19.50;99.90
45008;DHT22;30743;52.008;5.644;2023-07-22T05:23:59;19.50;99.90
45008;DHT22;30743;52.008;5.644;2023-07-22T05:26:24;19.60;99.90
45008;DHT22;30743;52.008;5.644;2023-07-22T05:28:50;19.60;99.90
45008;DHT22;30743;52.008;5.644;2023-07-22T05:31:16;19.60;99.90
45008;DHT22;30743;52.008;5.644;2023-07-22T05:33:41;19.60;99.90
45008;DHT22;30743;52.008;5.644;2023-07-22T05:36:07;19.60;99.90
45008;DHT22;30743;52.008;5.644;2023-07-22T05:38:33;19.70;99.90
45008;DHT22;30743;52.008;5.644;2023-07-22T05:40:58;19.70;99.90
45008;DHT22;30743;52.008;5.644;2023-07-22T05:43:24;19.60;99.90
45008;DHT22;30743;52.008;5.644;2023-07-22T05:45:49;19.70;99.90
45008;DHT22;30743;52.008;5.644;2023-07-22T05:48:15;19.60;99.90
45008;DHT22;30743;52.008;5.644;2023-07-22T05:50:41;19.80;99.90
45008;DHT22;30743;52.008;5.644;2023-07-22T05:53:06;19.80;99.90
45008;DHT22;30743;52.008;5.644;2023-07-22T05:55:32;19.90;99.90
45008;DHT22;30743;52.008;5.644;2023-07-22T05:57:57;20.10;99.90
45008;DHT22;30743;52.008;5.644;2023-07-22T06:00:23;20.30;99.90
45008;DHT22;30743;52.008;5.644;2023-07-22T06:02:49;20.20;99.90
45008;DHT22;30743;52.008;5.644;2023-07-22T06:05:14;20.20;99.90
45008;DHT22;30743;52.008;5.644;2023-07-22T06:07:40;20.40;99.90
45008;DHT22;30743;52.008;5.644;2023-07-22T06:10:06;20.50;99.90
45008;DHT22;30743;52.008;5.644;2023-07-22T06:12:33;20.70;99.90
45008;DHT22;30743;52.008;5.644;2023-07-22T06:14:59;20.70;99.90
45008;DHT22;30743;52.008;5.644;2023-07-22T06:17:25;20.70;99.90
45008;DHT22;30743;52.008;5.644;2023-07-22T06:19:50;20.80;99.90
45008;DHT22;30743;52.008;5.644;2023-07-22T06:22:16;20.70;99.90
45008;DHT22;30743;52.008;5.644;2023-07-22T06:24:41;20.60;99.90
45008;DHT22;30743;52.008;5.644;2023-07-22T06:27:07;20.30;99.90
45008;DHT22;30743;52.008;5.644;2023-07-22T06:29:32;20.20;99.90
45008;DHT22;30743;52.008;5.644;2023-07-22T06:31:58;20.00;99.90
45008;DHT22;30743;52.008;5.644;2023-07-22T06:34:24;20.00;99.90
45008;DHT22;30743;52.008;5.644;2023-07-22T06:36:50;20.00;99.90
45008;DHT22;30743;52.008;5.644;2023-07-22T06:39:15;20.20;99.90
45008;DHT22;30743;52.008;5.644;2023-07-22T06:41:41;20.10;99.90
45008;DHT22;30743;52.008;5.644;2023-07-22T06:44:06;20.10;99.90
45008;DHT22;30743;52.008;5.644;2023-07-22T06:46:32;20.00;99.90
45008;DHT22;30743;52.008;5.644;2023-07-22T06:48:58;20.00;99.90
45008;DHT22;30743;52.008;5.644;2023-07-22T06:51:24;20.20;99.90
45008;DHT22;30743;52.008;5.644;2023-07-22T06:53:49;20.40;99.90
45008;DHT22;30743;52.008;5.644;2023-07-22T06:56:15;20.50;99.90
45008;DHT22;30743;52.008;5.644;2023-07-22T06:58:40;20.70;99.90
45008;DHT22;30743;52.008;5.644;2023-07-22T07:01:06;20.80;99.90
45008;DHT22;30743;52.008;5.644;2023-07-22T07:03:31;20.70;99.90
45008;DHT22;30743;52.008;5.644;2023-07-22T07:05:57;21.00;99.90
45008;DHT22;30743;52.008;5.644;2023-07-22T07:08:23;21.20;99.90
45008;DHT22;30743;52.008;5.644;2023-07-22T07:10:50;21.20;99.90
45008;DHT22;30743;52.008;5.644;2023-07-22T07:13:16;21.20;99.90
45008;DHT22;30743;52.008;5.644;2023-07-22T07:15:46;21.40;99.90
45008;DHT22;30743;52.008;5.644;2023-07-22T07:18:13;21.50;99.90
45008;DHT22;30743;52.008;5.644;2023-07-22T07:20:39;21.80;99.90
45008;DHT22;30743;52.008;5.644;2023-07-22T07:23:04;21.80;99.90
45008;DHT22;30743;52.008;5.644;2023-07-22T07:25:30;21.90;99.90
45008;DHT22;30743;52.008;5.644;2023-07-22T07:27:55;21.80;99.90
45008;DHT22;30743;52.008;5.644;2023-07-22T07:30:21;21.90;99.90
45008;DHT22;30743;52.008;5.644;2023-07-22T07:32:46;22.20;99.90
45008;DHT22;30743;52.008;5.644;2023-07-22T07:35:12;22.40;99.90
45008;DHT22;30743;52.008;5.644;2023-07-22T07:37:37;22.30;99.90
45008;DHT22;30743;52.008;5.644;2023-07-22T07:40:03;22.70;99.90
45008;DHT22;30743;52.008;5.644;2023-07-22T07:42:29;22.60;99.90
45008;DHT22;30743;52.008;5.644;2023-07-22T07:44:55;22.70;99.90
45008;DHT22;30743;52.008;5.644;2023-07-22T07:47:20;22.70;99.90
45008;DHT22;30743;52.008;5.644;2023-07-22T07:49:46;22.60;99.90
45008;DHT22;30743;52.008;5.644;2023-07-22T07:52:12;22.70;99.90
45008;DHT22;30743;52.008;5.644;2023-07-22T07:54:37;22.70;99.90
45008;DHT22;30743;52.008;5.644;2023-07-22T07:57:03;22.80;99.90
45008;DHT22;30743;52.008;5.644;2023-07-22T07:59:29;22.80;99.90
45008;DHT22;30743;52.008;5.644;2023-07-22T08:01:54;22.80;99.90
45008;DHT22;30743;52.008;5.644;2023-07-22T08:04:20;22.90;99.90
45008;DHT22;30743;52.008;5.644;2023-07-22T08:06:45;23.10;99.90
45008;DHT22;30743;52.008;5.644;2023-07-22T08:09:11;22.80;99.90
45008;DHT22;30743;52.008;5.644;2023-07-22T08:11:41;22.80;99.90
45008;DHT22;30743;52.008;5.644;2023-07-22T08:14:06;23.00;99.90
45008;DHT22;30743;52.008;5.644;2023-07-22T08:16:33;22.90;99.90
45008;DHT22;30743;52.008;5.644;2023-07-22T08:18:58;23.10;99.90
45008;DHT22;30743;52.008;5.644;2023-07-22T08:21:24;23.00;99.90
45008;DHT22;30743;52.008;5.644;2023-07-22T08:23:50;22.80;99.90
45008;DHT22;30743;52.008;5.644;2023-07-22T08:26:15;22.90;99.90
45008;DHT22;30743;52.008;5.644;2023-07-22T08:28:43;22.90;99.90
45008;DHT22;30743;52.008;5.644;2023-07-22T08:31:08;23.10;99.90
45008;DHT22;30743;52.008;5.644;2023-07-22T08:33:34;23.40;99.90
45008;DHT22;30743;52.008;5.644;2023-07-22T08:36:00;23.40;99.90
45008;DHT22;30743;52.008;5.644;2023-07-22T08:38:27;23.40;99.90
45008;DHT22;30743;52.008;5.644;2023-07-22T08:40:53;23.20;99.90
45008;DHT22;30743;52.008;5.644;2023-07-22T08:43:22;23.20;99.90
45008;DHT22;30743;52.008;5.644;2023-07-22T08:45:48;23.40;99.90
45008;DHT22;30743;52.008;5.644;2023-07-22T08:48:16;25.40;99.90
45008;DHT22;30743;52.008;5.644;2023-07-22T08:51:04;23.90;99.90
45008;DHT22;30743;52.008;5.644;2023-07-22T08:53:30;24.00;99.90
45008;DHT22;30743;52.008;5.644;2023-07-22T08:55:58;24.30;99.90
45008;DHT22;30743;52.008;5.644;2023-07-22T08:58:24;23.90;99.90
45008;DHT22;30743;52.008;5.644;2023-07-22T09:00:51;24.00;99.90
45008;DHT22;30743;52.008;5.644;2023-07-22T09:03:17;24.00;99.90
45008;DHT22;30743;52.008;5.644;2023-07-22T09:05:43;23.90;99.90
45008;DHT22;30743;52.008;5.644;2023-07-22T09:08:09;23.90;99.90
45008;DHT22;30743;52.008;5.644;2023-07-22T09:10:35;24.00;99.90
45008;DHT22;30743;52.008;5.644;2023-07-22T09:13:01;23.80;99.90
45008;DHT22;30743;52.008;5.644;2023-07-22T09:15:27;23.80;99.90
45008;DHT22;30743;52.008;5.644;2023-07-22T09:17:53;23.80;99.90
45008;DHT22;30743;52.008;5.644;2023-07-22T09:20:20;23.70;99.90
45008;DHT22;30743;52.008;5.644;2023-07-22T09:22:49;23.50;99.90
45008;DHT22;30743;52.008;5.644;2023-07-22T09:25:24;23.60;99.90
45008;DHT22;30743;52.008;5.644;2023-07-22T09:27:52;23.70;99.90
45008;DHT22;30743;52.008;5.644;2023-07-22T09:30:31;23.80;99.90
45008;DHT22;30743;52.008;5.644;2023-07-22T09:32:59;23.80;99.90
45008;DHT22;30743;52.008;5.644;2023-07-22T09:35:50;23.70;99.90
45008;DHT22;30743;52.008;5.644;2023-07-22T09:38:23;23.60;99.90
45008;DHT22;30743;52.008;5.644;2023-07-22T09:40:49;23.80;99.90
45008;DHT22;30743;52.008;5.644;2023-07-22T09:43:15;23.90;99.90
45008;DHT22;30743;52.008;5.644;2023-07-22T09:45:40;24.10;99.90
45008;DHT22;30743;52.008;5.644;2023-07-22T09:48:09;24.20;99.90
45008;DHT22;30743;52.008;5.644;2023-07-22T09:50:36;24.20;99.90
45008;DHT22;30743;52.008;5.644;2023-07-22T09:53:01;24.00;99.90
45008;DHT22;30743;52.008;5.644;2023-07-22T09:55:30;24.10;99.90
45008;DHT22;30743;52.008;5.644;2023-07-22T09:57:58;24.00;99.90
45008;DHT22;30743;52.008;5.644;2023-07-22T10:00:25;24.10;99.90
45008;DHT22;30743;52.008;5.644;2023-07-22T10:02:53;24.20;99.90
45008;DHT22;30743;52.008;5.644;2023-07-22T10:05:21;23.90;99.90
45008;DHT22;30743;52.008;5.644;2023-07-22T10:07:48;23.90;99.90
45008;DHT22;30743;52.008;5.644;2023-07-22T10:10:40;24.00;99.90
45008;DHT22;30743;52.008;5.644;2023-07-22T10:13:08;23.90;99.90
45008;DHT22;30743;52.008;5.644;2023-07-22T10:15:34;23.70;99.90
45008;DHT22;30743;52.008;5.644;2023-07-22T10:18:02;23.70;99.90
45008;DHT22;30743;52.008;5.644;2023-07-22T10:20:28;23.70;99.90
45008;DHT22;30743;52.008;5.644;2023-07-22T10:22:55;23.70;99.90
45008;DHT22;30743;52.008;5.644;2023-07-22T10:25:21;23.70;99.90
45008;DHT22;30743;52.008;5.644;2023-07-22T10:27:48;23.80;99.90
45008;DHT22;30743;52.008;5.644;2023-07-22T10:30:15;24.00;99.90
45008;DHT22;30743;52.008;5.644;2023-07-22T10:32:45;23.90;99.90
45008;DHT22;30743;52.008;5.644;2023-07-22T10:35:22;23.90;99.90
45008;DHT22;30743;52.008;5.644;2023-07-22T10:37:49;23.90;99.90
45008;DHT22;30743;52.008;5.644;2023-07-22T10:40:29;23.90;99.90
45008;DHT22;30743;52.008;5.644;2023-07-22T10:43:05;23.80;99.90
45008;DHT22;30743;52.008;5.644;2023-07-22T10:45:33;23.70;99.90
45008;DHT22;30743;52.008;5.644;2023-07-22T10:53:13;23.70;99.90
45008;DHT22;30743;52.008;5.644;2023-07-22T10:56:05;23.60;99.90
45008;DHT22;30743;52.008;5.644;2023-07-22T10:58:32;23.20;99.90
45008;DHT22;30743;52.008;5.644;2023-07-22T11:11:59;23.10;99.90
45008;DHT22;30743;52.008;5.644;2023-07-22T11:14:26;23.20;99.90
45008;DHT22;30743;52.008;5.644;2023-07-22T11:16:52;23.10;99.90
45008;DHT22;30743;52.008;5.644;2023-07-22T11:19:21;23.10;99.90
45008;DHT22;30743;52.008;5.644;2023-07-22T11:21:48;23.10;99.90
45008;DHT22;30743;52.008;5.644;2023-07-22T11:24:15;22.80;99.90
45008;DHT22;30743;52.008;5.644;2023-07-22T11:26:41;22.80;99.90
45008;DHT22;30743;52.008;5.644;2023-07-22T11:29:08;23.00;99.90
45008;DHT22;30743;52.008;5.644;2023-07-22T11:31:35;23.20;99.90
45008;DHT22;30743;52.008;5.644;2023-07-22T11:34:02;23.20;99.90
45008;DHT22;30743;52.008;5.644;2023-07-22T11:36:28;23.30;99.90
45008;DHT22;30743;52.008;5.644;2023-07-22T11:38:54;23.50;99.90
45008;DHT22;30743;52.008;5.644;2023-07-22T11:41:26;23.80;99.90
45008;DHT22;30743;52.008;5.644;2023-07-22T11:43:52;24.00;99.90
45008;DHT22;30743;52.008;5.644;2023-07-22T11:46:17;24.00;99.90
45008;DHT22;30743;52.008;5.644;2023-07-22T11:48:53;24.10;99.90
45008;DHT22;30743;52.008;5.644;2023-07-22T11:51:24;24.00;99.90
45008;DHT22;30743;52.008;5.644;2023-07-22T11:53:50;24.20;99.90
45008;DHT22;30743;52.008;5.644;2023-07-22T11:56:25;24.50;99.90
45008;DHT22;30743;52.008;5.644;2023-07-22T11:58:51;24.70;99.90
45008;DHT22;30743;52.008;5.644;2023-07-22T12:01:17;25.10;99.90
45008;DHT22;30743;52.008;5.644;2023-07-22T12:03:43;25.30;99.90
45008;DHT22;30743;52.008;5.644;2023-07-22T12:06:09;25.50;99.90
45008;DHT22;30743;52.008;5.644;2023-07-22T12:08:35;25.50;99.90
45008;DHT22;30743;52.008;5.644;2023-07-22T12:11:01;25.60;99.90
45008;DHT22;30743;52.008;5.644;2023-07-22T12:13:27;25.20;99.90
45008;DHT22;30743;52.008;5.644;2023-07-22T12:16:03;25.00;99.90
45008;DHT22;30743;52.008;5.644;2023-07-22T12:18:50;24.50;99.90
45008;DHT22;30743;52.008;5.644;2023-07-22T12:21:19;24.40;99.90
45008;DHT22;30743;52.008;5.644;2023-07-22T12:23:46;24.00;99.90
45008;DHT22;30743;52.008;5.644;2023-07-22T12:26:11;23.50;99.90
45008;DHT22;30743;52.008;5.644;2023-07-22T12:28:37;22.90;99.90
45008;DHT22;30743;52.008;5.644;2023-07-22T12:31:02;22.40;99.90
45008;DHT22;30743;52.008;5.644;2023-07-22T12:33:28;22.20;99.90
45008;DHT22;30743;52.008;5.644;2023-07-22T12:35:54;22.10;99.90
45008;DHT22;30743;52.008;5.644;2023-07-22T12:38:19;22.30;99.90
45008;DHT22;30743;52.008;5.644;2023-07-22T12:40:45;22.40;99.90
45008;DHT22;30743;52.008;5.644;2023-07-22T12:43:11;22.60;99.90
45008;DHT22;30743;52.008;5.644;2023-07-22T12:45:36;22.70;99.90
45008;DHT22;30743;52.008;5.644;2023-07-22T12:48:02;22.90;99.90
45008;DHT22;30743;52.008;5.644;2023-07-22T12:50:29;23.10;99.90
45008;DHT22;30743;52.008;5.644;2023-07-22T12:52:55;23.20;99.90
45008;DHT22;30743;52.008;5.644;2023-07-22T12:55:20;23.40;99.90
45008;DHT22;30743;52.008;5.644;2023-07-22T12:57:46;23.50;99.90
45008;DHT22;30743;52.008;5.644;2023-07-22T13:00:12;23.40;99.90
45008;DHT22;30743;52.008;5.644;2023-07-22T13:02:38;23.70;99.90
45008;DHT22;30743;52.008;5.644;2023-07-22T13:05:04;23.80;99.90
45008;DHT22;30743;52.008;5.644;2023-07-22T13:07:31;23.90;99.90
45008;DHT22;30743;52.008;5.644;2023-07-22T13:09:57;24.00;99.90
45008;DHT22;30743;52.008;5.644;2023-07-22T13:12:24;24.30;99.90
45008;DHT22;30743;52.008;5.644;2023-07-22T13:14:50;24.70;99.90
45008;DHT22;30743;52.008;5.644;2023-07-22T13:17:15;24.80;99.90
45008;DHT22;30743;52.008;5.644;2023-07-22T13:19:41;24.90;99.90
45008;DHT22;30743;52.008;5.644;2023-07-22T13:22:06;24.90;99.90
45008;DHT22;30743;52.008;5.644;2023-07-22T13:24:32;24.90;99.90
45008;DHT22;30743;52.008;5.644;2023-07-22T13:26:57;25.00;99.90
45008;DHT22;30743;52.008;5.644;2023-07-22T13:29:23;24.90;99.90
45008;DHT22;30743;52.008;5.644;2023-07-22T13:31:48;24.90;99.90
45008;DHT22;30743;52.008;5.644;2023-07-22T13:34:14;24.90;99.90
45008;DHT22;30743;52.008;5.644;2023-07-22T13:36:40;25.10;99.90
45008;DHT22;30743;52.008;5.644;2023-07-22T13:39:06;25.00;99.90
45008;DHT22;30743;52.008;5.644;2023-07-22T13:41:31;24.40;99.90
45008;DHT22;30743;52.008;5.644;2023-07-22T13:43:57;24.10;99.90
45008;DHT22;30743;52.008;5.644;2023-07-22T13:46:22;23.90;99.90
45008;DHT22;30743;52.008;5.644;2023-07-22T13:48:48;23.80;99.90
45008;DHT22;30743;52.008;5.644;2023-07-22T13:51:14;23.60;99.90
45008;DHT22;30743;52.008;5.644;2023-07-22T13:53:39;23.60;99.90
45008;DHT22;30743;52.008;5.644;2023-07-22T13:56:05;23.80;99.90
45008;DHT22;30743;52.008;5.644;2023-07-22T13:58:30;23.60;99.90
45008;DHT22;30743;52.008;5.644;2023-07-22T14:00:56;23.50;99.90
45008;DHT22;30743;52.008;5.644;2023-07-22T14:03:21;23.50;99.90
45008;DHT22;30743;52.008;5.644;2023-07-22T14:05:46;23.50;99.90
45008;DHT22;30743;52.008;5.644;2023-07-22T14:08:12;23.60;99.90
45008;DHT22;30743;52.008;5.644;2023-07-22T14:10:38;23.50;99.90
45008;DHT22;30743;52.008;5.644;2023-07-22T14:13:03;23.30;99.90
45008;DHT22;30743;52.008;5.644;2023-07-22T14:15:29;23.50;99.90
45008;DHT22;30743;52.008;5.644;2023-07-22T14:17:54;23.50;99.90
45008;DHT22;30743;52.008;5.644;2023-07-22T14:20:20;23.60;99.90
45008;DHT22;30743;52.008;5.644;2023-07-22T14:22:45;23.70;99.90
45008;DHT22;30743;52.008;5.644;2023-07-22T14:25:11;23.90;99.90
45008;DHT22;30743;52.008;5.644;2023-07-22T14:27:39;23.90;99.90
45008;DHT22;30743;52.008;5.644;2023-07-22T14:30:06;24.20;99.90
45008;DHT22;30743;52.008;5.644;2023-07-22T14:32:32;24.40;99.90
45008;DHT22;30743;52.008;5.644;2023-07-22T14:34:57;24.60;99.90
45008;DHT22;30743;52.008;5.644;2023-07-22T14:37:23;24.80;99.90
45008;DHT22;30743;52.008;5.644;2023-07-22T14:39:49;25.10;99.90
45008;DHT22;30743;52.008;5.644;2023-07-22T14:42:14;25.30;99.90
45008;DHT22;30743;52.008;5.644;2023-07-22T14:44:40;25.40;99.90
45008;DHT22;30743;52.008;5.644;2023-07-22T14:47:05;25.60;99.90
45008;DHT22;30743;52.008;5.644;2023-07-22T14:49:31;25.60;99.90
45008;DHT22;30743;52.008;5.644;2023-07-22T14:51:57;25.80;99.90
45008;DHT22;30743;52.008;5.644;2023-07-22T14:54:22;26.00;99.90
45008;DHT22;30743;52.008;5.644;2023-07-22T14:56:48;26.20;99.90
45008;DHT22;30743;52.008;5.644;2023-07-22T14:59:15;26.30;99.90
45008;DHT22;30743;52.008;5.644;2023-07-22T15:01:41;26.30;99.90
45008;DHT22;30743;52.008;5.644;2023-07-22T15:04:07;26.10;99.90
45008;DHT22;30743;52.008;5.644;2023-07-22T15:06:33;25.80;99.90
45008;DHT22;30743;52.008;5.644;2023-07-22T15:09:01;25.70;99.90
45008;DHT22;30743;52.008;5.644;2023-07-22T15:11:27;25.50;99.90
45008;DHT22;30743;52.008;5.644;2023-07-22T15:13:52;25.40;99.90
45008;DHT22;30743;52.008;5.644;2023-07-22T15:16:18;25.20;99.90
45008;DHT22;30743;52.008;5.644;2023-07-22T15:18:43;25.20;99.90
45008;DHT22;30743;52.008;5.644;2023-07-22T15:21:09;25.10;99.90
45008;DHT22;30743;52.008;5.644;2023-07-22T15:23:34;25.00;99.90
45008;DHT22;30743;52.008;5.644;2023-07-22T15:26:00;25.00;99.90
45008;DHT22;30743;52.008;5.644;2023-07-22T15:28:26;25.00;99.90
45008;DHT22;30743;52.008;5.644;2023-07-22T15:30:53;24.90;99.90
45008;DHT22;30743;52.008;5.644;2023-07-22T15:33:19;24.80;99.90
45008;DHT22;30743;52.008;5.644;2023-07-22T15:35:45;24.80;99.90
45008;DHT22;30743;52.008;5.644;2023-07-22T15:38:10;24.80;99.90
45008;DHT22;30743;52.008;5.644;2023-07-22T15:40:36;24.80;99.90
45008;DHT22;30743;52.008;5.644;2023-07-22T15:43:02;24.80;99.90